createdAt,value
2023-05-21T00:01:59.326Z,4.60
2023-05-21T00:04:28.426Z,4.13
2023-05-21T00:06:57.408Z,4.60
2023-05-21T00:09:26.341Z,4.65
2023-05-21T00:11:55.290Z,5.15
2023-05-21T00:14:24.186Z,5.50
2023-05-21T00:16:53.138Z,5.17
2023-05-21T00:19:22.300Z,4.92
2023-05-21T00:21:51.271Z,4.97
2023-05-21T00:24:20.263Z,5.03
2023-05-21T00:26:49.276Z,5.00
2023-05-21T00:29:18.149Z,5.35
2023-05-21T00:31:50.168Z,5.00
2023-05-21T00:34:21.258Z,4.97
2023-05-21T00:36:50.344Z,5.40
2023-05-21T00:39:19.543Z,5.08
2023-05-21T00:41:48.641Z,5.33
2023-05-21T00:44:17.522Z,5.37
2023-05-21T00:46:46.515Z,4.83
2023-05-21T00:49:15.414Z,5.20
2023-05-21T00:51:44.298Z,6.22
2023-05-21T00:54:13.218Z,4.67
2023-05-21T00:56:42.609Z,4.70
2023-05-21T00:59:11.601Z,5.22
2023-05-21T01:01:40.833Z,5.80
2023-05-21T01:04:09.989Z,5.90
2023-05-21T01:06:38.993Z,5.83
2023-05-21T01:09:08.277Z,5.83
2023-05-21T01:11:37.375Z,5.55
2023-05-21T01:14:12.203Z,4.40
2023-05-21T01:16:44.868Z,4.80
2023-05-21T01:19:13.973Z,5.22
2023-05-21T01:21:43.171Z,5.83
2023-05-21T01:24:12.485Z,5.30
2023-05-21T01:26:41.414Z,5.80
2023-05-21T01:29:10.367Z,5.78
2023-05-21T01:31:39.451Z,6.35
2023-05-21T01:34:08.397Z,5.97
2023-05-21T01:36:37.334Z,5.95
2023-05-21T01:39:06.611Z,6.10
2023-05-21T01:41:35.857Z,6.42
2023-05-21T01:44:04.833Z,7.17
2023-05-21T01:46:34.164Z,6.77
2023-05-21T01:49:03.438Z,6.20
2023-05-21T01:51:32.425Z,6.95
2023-05-21T01:54:01.632Z,7.15
2023-05-21T01:56:31.036Z,7.10
2023-05-21T01:59:00.031Z,7.12
2023-05-21T02:01:29.180Z,7.90
2023-05-21T02:03:58.415Z,7.00
2023-05-21T02:06:30.144Z,6.85
2023-05-21T02:08:59.388Z,7.70
2023-05-21T02:11:28.578Z,7.67
2023-05-21T02:13:58.089Z,7.28
2023-05-21T02:16:27.095Z,7.80
2023-05-21T02:18:56.197Z,8.40
2023-05-21T02:21:25.268Z,8.03
2023-05-21T02:23:54.160Z,8.47
2023-05-21T02:26:23.263Z,8.20
2023-05-21T02:28:52.457Z,7.67
2023-05-21T02:31:21.657Z,8.47
2023-05-21T02:33:50.770Z,8.65
2023-05-21T02:36:19.839Z,8.00
2023-05-21T02:38:48.786Z,8.30
2023-05-21T02:41:18.046Z,9.15
2023-05-21T02:43:47.027Z,8.50
2023-05-21T02:46:16.730Z,7.90
2023-05-21T02:48:46.082Z,9.40
2023-05-21T02:51:16.400Z,8.70
2023-05-21T02:53:45.778Z,9.10
2023-05-21T02:56:14.863Z,9.03
2023-05-21T02:58:43.850Z,9.03
2023-05-21T03:01:13.080Z,9.53
2023-05-21T03:03:42.400Z,9.67
2023-05-21T03:06:11.288Z,9.40
2023-05-21T03:08:40.239Z,9.63
2023-05-21T03:11:09.233Z,10.50
2023-05-21T03:13:38.367Z,10.23
2023-05-21T03:16:07.501Z,9.63
2023-05-21T03:18:36.932Z,10.20
2023-05-21T03:21:06.017Z,9.98
2023-05-21T03:23:35.009Z,10.20
2023-05-21T03:26:04.011Z,10.50
2023-05-21T03:28:34.439Z,10.08
2023-05-21T03:31:03.336Z,9.63
2023-05-21T03:33:33.860Z,10.18
2023-05-21T03:36:04.490Z,10.63
2023-05-21T03:38:35.953Z,9.93
2023-05-21T03:41:05.346Z,10.32
2023-05-21T03:43:34.649Z,11.27
2023-05-21T03:46:04.097Z,10.75
2023-05-21T03:48:40.407Z,11.18
2023-05-21T03:51:10.940Z,10.78
2023-05-21T03:53:40.127Z,10.40
2023-05-21T03:56:09.241Z,11.05
2023-05-21T03:58:38.227Z,10.80
2023-05-21T04:01:10.373Z,11.60
2023-05-21T04:03:41.262Z,11.75
2023-05-21T04:06:11.768Z,11.20
2023-05-21T04:08:40.992Z,11.75
2023-05-21T04:11:10.216Z,11.20
2023-05-21T04:13:39.147Z,11.67
2023-05-21T04:16:08.487Z,11.97
2023-05-21T04:18:37.662Z,11.33
2023-05-21T04:21:07.066Z,11.20
2023-05-21T04:23:36.350Z,11.83
2023-05-21T04:26:06.788Z,10.72
2023-05-21T04:28:36.082Z,10.90
2023-05-21T04:31:05.094Z,10.85
2023-05-21T04:33:34.100Z,11.60
2023-05-21T04:36:03.387Z,10.78
2023-05-21T04:38:32.266Z,11.63
2023-05-21T04:41:01.250Z,11.88
2023-05-21T04:43:30.316Z,11.30
2023-05-21T04:46:00.773Z,11.55
2023-05-21T04:48:29.870Z,12.17
2023-05-21T04:50:58.827Z,11.47
2023-05-21T04:53:28.468Z,11.33
2023-05-21T04:55:57.563Z,11.40
2023-05-21T04:58:26.771Z,10.40
2023-05-21T05:00:56.098Z,11.68
2023-05-21T05:03:25.262Z,12.00
2023-05-21T05:05:54.361Z,12.00
2023-05-21T05:08:23.669Z,12.63
2023-05-21T05:10:52.659Z,12.10
2023-05-21T05:13:22.067Z,11.35
2023-05-21T05:15:52.587Z,11.03
2023-05-21T05:18:22.093Z,11.43
2023-05-21T05:20:51.493Z,11.45
2023-05-21T05:23:20.595Z,12.68
2023-05-21T05:25:51.576Z,12.45
2023-05-21T05:28:20.293Z,10.98
2023-05-21T05:30:49.855Z,11.22
2023-05-21T05:33:20.451Z,11.00
2023-05-21T05:35:49.652Z,11.12
2023-05-21T05:38:18.851Z,11.70
2023-05-21T05:40:48.566Z,12.15
2023-05-21T05:43:18.914Z,11.28
2023-05-21T05:45:48.313Z,11.45
2023-05-21T05:48:17.606Z,12.65
2023-05-21T05:50:46.783Z,11.88
2023-05-21T05:53:15.883Z,12.23
2023-05-21T05:55:45.085Z,11.40
2023-05-21T05:58:14.780Z,11.73
2023-05-21T06:00:45.715Z,11.83
2023-05-21T06:03:14.969Z,11.33
2023-05-21T06:05:44.119Z,11.60
2023-05-21T06:08:13.219Z,11.10
2023-05-21T06:10:42.220Z,11.33
2023-05-21T06:13:11.395Z,11.33
2023-05-21T06:15:40.606Z,11.60
2023-05-21T06:18:10.114Z,11.53
2023-05-21T06:20:39.624Z,11.48
2023-05-21T06:23:09.221Z,11.73
2023-05-21T06:25:38.730Z,11.22
2023-05-21T06:28:08.858Z,11.60
2023-05-21T06:30:39.792Z,11.25
2023-05-21T06:33:09.863Z,12.30
2023-05-21T06:35:38.999Z,11.35
2023-05-21T06:38:08.790Z,12.35
2023-05-21T06:40:38.228Z,12.23
2023-05-21T06:43:08.937Z,12.65
2023-05-21T06:45:42.278Z,11.95
2023-05-21T06:48:19.235Z,13.78
2023-05-21T06:50:48.729Z,13.62
2023-05-21T06:53:18.663Z,13.68
2023-05-21T06:55:47.546Z,13.32
2023-05-21T06:58:21.143Z,13.98
2023-05-21T07:00:50.468Z,14.98
2023-05-21T07:03:23.167Z,14.40
2023-05-21T07:05:53.053Z,13.95
2023-05-21T07:10:51.952Z,14.87
2023-05-21T07:13:21.125Z,14.13
2023-05-21T07:15:50.129Z,14.43
2023-05-21T07:18:20.877Z,15.23
2023-05-21T07:20:51.403Z,15.18
2023-05-21T07:23:21.421Z,14.90
2023-05-21T07:25:50.820Z,14.93
2023-05-21T07:28:20.533Z,16.05
2023-05-21T07:30:49.926Z,14.33
2023-05-21T07:33:20.449Z,14.45
2023-05-21T07:38:19.571Z,14.73
2023-05-21T07:40:48.895Z,14.70
2023-05-21T07:43:18.396Z,15.10
2023-05-21T07:45:47.902Z,15.25
2023-05-21T12:43:48.205Z,12.98
2023-05-21T12:46:18.054Z,13.20
2023-05-21T12:48:47.638Z,12.60
2023-05-21T12:51:16.834Z,13.00
2023-05-21T12:53:46.016Z,13.03
2023-05-21T12:56:15.221Z,12.93
2023-05-21T12:58:44.629Z,12.63
2023-05-21T13:01:13.683Z,12.63
2023-05-21T13:03:43.178Z,13.03
2023-05-21T13:06:12.627Z,12.65
2023-05-21T13:08:41.922Z,13.98
2023-05-21T13:11:11.434Z,14.43
2023-05-21T13:13:40.636Z,15.78
2023-05-21T13:16:09.767Z,13.28
2023-05-21T13:18:39.439Z,12.63
2023-05-21T13:21:08.634Z,12.68
2023-05-21T13:23:37.839Z,13.00
2023-05-21T13:26:06.935Z,11.20
2023-05-21T13:28:36.132Z,11.75
2023-05-21T13:31:05.622Z,10.50
2023-05-21T13:33:35.094Z,9.70
2023-05-21T13:36:04.538Z,9.68
2023-05-21T13:38:33.743Z,8.87
2023-05-21T13:41:02.838Z,8.55
2023-05-21T13:43:32.241Z,8.65
2023-05-21T13:46:01.332Z,7.72
2023-05-21T13:48:30.733Z,8.05
2023-05-21T13:51:00.244Z,7.83
2023-05-21T13:53:29.331Z,7.28
2023-05-21T13:55:58.426Z,8.28
2023-05-21T13:58:27.715Z,7.20
2023-05-21T14:00:56.971Z,7.33
2023-05-21T14:03:26.155Z,6.70
2023-05-21T14:05:55.308Z,6.55
2023-05-21T14:08:24.409Z,7.10
2023-05-21T14:10:53.729Z,8.00
2023-05-21T14:13:22.944Z,7.57
2023-05-21T14:15:52.210Z,7.83
2023-05-21T14:18:23.414Z,7.50
2023-05-21T14:20:52.768Z,8.35
2023-05-21T14:23:22.259Z,7.22
2023-05-21T14:25:51.575Z,7.20
2023-05-21T14:28:20.764Z,6.60
2023-05-21T14:30:49.858Z,6.10
2023-05-21T14:33:19.228Z,5.85
2023-05-21T14:35:48.367Z,6.72
2023-05-21T14:38:17.661Z,7.17
2023-05-21T14:40:46.746Z,5.83
2023-05-21T14:43:15.753Z,5.72
2023-05-21T14:45:44.995Z,6.20
2023-05-21T14:48:14.250Z,5.55
2023-05-21T14:50:43.663Z,5.70
2023-05-21T14:53:12.925Z,6.00
2023-05-21T14:55:42.782Z,6.47
2023-05-21T14:58:12.270Z,6.08
2023-05-21T15:00:41.675Z,6.03
2023-05-21T15:03:10.719Z,6.72
2023-05-21T15:05:40.170Z,7.00
2023-05-21T15:08:09.163Z,6.53
2023-05-21T15:10:38.562Z,6.47
2023-05-21T15:13:07.749Z,6.63
2023-05-21T15:15:38.033Z,6.40
2023-05-21T15:18:07.709Z,7.00
2023-05-21T15:20:37.000Z,6.60
2023-05-21T15:23:15.972Z,6.33
2023-05-21T15:25:36.949Z,6.33
2023-05-21T15:30:35.835Z,6.22
2023-05-21T15:33:05.023Z,6.60
2023-05-21T15:35:34.457Z,5.58
2023-05-21T15:38:03.755Z,6.28
2023-05-21T15:40:33.204Z,6.60
2023-05-21T15:43:02.549Z,6.62
2023-05-21T15:45:31.531Z,6.70
2023-05-21T15:48:00.889Z,7.10
2023-05-21T15:50:30.247Z,6.33
2023-05-21T15:52:59.592Z,6.20
2023-05-21T15:55:28.835Z,6.90
2023-05-21T15:57:59.582Z,6.22
2023-05-21T16:00:28.890Z,6.78
2023-05-21T16:02:58.310Z,6.90
2023-05-21T16:05:27.775Z,5.85
2023-05-21T16:07:57.090Z,6.83
2023-05-21T16:10:26.076Z,6.37
2023-05-21T16:12:55.172Z,6.47
2023-05-21T16:15:24.588Z,6.10
2023-05-21T16:17:53.757Z,6.95
2023-05-21T16:20:22.974Z,6.80
2023-05-21T16:22:52.277Z,6.25
2023-05-21T16:25:21.372Z,6.60
2023-05-21T16:27:50.465Z,6.77
2023-05-21T16:30:22.394Z,6.83
2023-05-21T16:32:51.872Z,7.08
2023-05-21T16:35:21.237Z,6.37
2023-05-21T16:37:50.326Z,6.80
2023-05-21T16:40:19.739Z,6.33
2023-05-21T16:42:49.140Z,6.30
2023-05-21T16:45:18.332Z,6.60
2023-05-21T16:47:48.189Z,7.33
2023-05-21T16:50:17.459Z,6.25
2023-05-21T16:52:46.654Z,5.83
2023-05-21T16:55:15.744Z,6.17
2023-05-21T16:57:44.834Z,6.08
2023-05-21T17:00:14.030Z,6.20
2023-05-21T17:02:43.491Z,5.83
2023-05-21T17:05:13.052Z,5.97
2023-05-21T17:07:42.558Z,5.70
2023-05-21T17:10:11.655Z,6.35
2023-05-21T17:12:40.750Z,6.45
2023-05-21T17:15:10.157Z,6.37
2023-05-21T17:17:39.381Z,6.58
2023-05-21T17:20:08.548Z,6.67
2023-05-21T17:22:37.992Z,6.35
2023-05-21T17:25:07.249Z,6.22
2023-05-21T17:27:36.530Z,6.57
2023-05-21T17:30:05.860Z,6.97
2023-05-21T17:32:35.294Z,6.55
2023-05-21T17:35:04.656Z,6.08
2023-05-21T17:37:34.064Z,6.75
2023-05-21T17:40:03.572Z,6.80
2023-05-21T17:42:32.661Z,7.03
2023-05-21T17:45:01.969Z,6.42
2023-05-21T17:47:31.287Z,6.87
2023-05-21T17:50:00.451Z,6.87
2023-05-21T17:52:29.544Z,6.35
2023-05-21T17:54:58.749Z,7.10
2023-05-21T17:57:27.950Z,6.00
2023-05-21T17:59:57.039Z,5.97
2023-05-21T18:02:28.164Z,6.62
2023-05-21T18:04:57.177Z,6.62
2023-05-21T18:07:26.062Z,6.45
2023-05-21T18:09:55.167Z,6.53
2023-05-21T18:12:24.376Z,6.53
2023-05-21T18:14:53.327Z,6.58
2023-05-21T18:17:22.352Z,5.72
2023-05-21T18:19:51.565Z,6.87
2023-05-21T18:22:21.484Z,5.95
2023-05-21T18:24:50.456Z,6.00
2023-05-21T18:27:19.658Z,6.65
2023-05-21T18:29:48.538Z,6.00
2023-05-21T18:32:17.497Z,6.12
2023-05-21T18:34:46.741Z,6.42
2023-05-21T18:37:16.039Z,5.70
2023-05-21T18:39:45.026Z,6.13
2023-05-21T18:42:14.573Z,6.53
2023-05-21T18:44:43.525Z,6.30
2023-05-21T18:47:12.414Z,6.12
2023-05-21T18:49:41.521Z,6.83
2023-05-21T18:52:10.825Z,6.67
2023-05-21T18:54:39.703Z,6.00
2023-05-21T18:57:08.709Z,5.62
2023-05-21T18:59:38.004Z,6.62
2023-05-21T19:02:07.115Z,5.90
2023-05-21T19:04:36.093Z,6.22
2023-05-21T19:07:05.085Z,6.33
2023-05-21T19:09:33.981Z,5.92
2023-05-21T19:12:02.964Z,5.47
2023-05-21T19:14:32.169Z,5.50
2023-05-21T19:17:01.266Z,5.90
2023-05-21T19:19:30.274Z,5.08
2023-05-21T19:21:59.348Z,4.90
2023-05-21T19:24:28.560Z,4.95
2023-05-21T19:26:57.969Z,4.73
2023-05-21T19:29:28.223Z,4.63
2023-05-21T19:31:57.169Z,5.10
2023-05-21T19:34:26.245Z,4.75
2023-05-21T19:36:58.342Z,4.80
2023-05-21T19:39:27.324Z,4.80
2023-05-21T19:41:56.433Z,5.90
2023-05-21T19:44:28.349Z,4.92
2023-05-21T19:46:57.693Z,4.90
2023-05-21T19:49:27.185Z,4.83
2023-05-21T19:51:56.287Z,4.28
2023-05-21T19:54:25.213Z,4.37
2023-05-21T19:56:54.061Z,4.47
2023-05-21T19:59:22.965Z,4.50
2023-05-21T20:01:51.851Z,4.85
2023-05-21T20:04:21.126Z,4.65
2023-05-21T20:06:50.352Z,4.70
2023-05-21T20:09:19.239Z,4.35
2023-05-21T20:11:48.140Z,4.53
2023-05-21T20:14:17.333Z,4.35
2023-05-21T20:16:46.686Z,4.77
2023-05-21T20:19:15.987Z,4.50
2023-05-21T20:21:45.362Z,4.10
2023-05-21T20:24:14.220Z,4.00
2023-05-21T20:26:43.218Z,3.92
2023-05-21T20:29:12.394Z,4.10
2023-05-21T20:31:41.401Z,4.25
2023-05-21T20:34:10.289Z,4.40
2023-05-21T20:36:39.285Z,3.52
2023-05-21T20:39:08.487Z,4.00
2023-05-21T20:41:37.863Z,4.12
2023-05-21T20:44:06.778Z,4.27
2023-05-21T20:46:35.688Z,3.90
2023-05-21T20:49:04.978Z,3.55
2023-05-21T20:51:34.484Z,4.17
2023-05-21T20:54:03.673Z,3.40
2023-05-21T21:01:33.817Z,3.62
2023-05-21T21:04:02.946Z,3.42
2023-05-21T21:06:32.198Z,3.52
2023-05-21T21:09:01.228Z,3.73
2023-05-21T21:11:30.301Z,3.50
2023-05-21T21:13:59.523Z,3.83
2023-05-21T21:16:28.442Z,3.55
2023-05-21T21:18:57.592Z,3.47
2023-05-21T21:21:26.690Z,3.37
2023-05-21T21:23:55.889Z,3.42
2023-05-21T21:26:24.782Z,3.37
2023-05-21T21:28:53.881Z,3.55
2023-05-21T21:31:23.080Z,3.40
2023-05-21T21:33:52.116Z,3.47
2023-05-21T21:36:21.059Z,3.40
2023-05-21T21:38:50.276Z,3.22
2023-05-21T21:41:19.457Z,3.23
2023-05-21T21:43:48.696Z,3.37
2023-05-21T21:46:17.999Z,3.30
2023-05-21T21:48:46.956Z,3.10
2023-05-21T21:51:15.846Z,3.30
2023-05-21T21:53:44.742Z,3.52
2023-05-21T21:56:14.138Z,2.87
2023-05-21T21:58:43.125Z,2.93
2023-05-21T22:01:12.094Z,3.00
2023-05-21T22:03:44.834Z,3.22
2023-05-21T22:06:13.884Z,3.17
2023-05-21T22:08:42.888Z,2.95
2023-05-21T22:11:11.989Z,3.47
2023-05-21T22:13:42.648Z,3.35
2023-05-21T22:16:11.525Z,3.60
2023-05-21T22:18:41.428Z,3.08
2023-05-21T22:21:11.193Z,3.27
2023-05-21T22:23:40.148Z,3.15
2023-05-21T22:26:09.151Z,3.37
2023-05-21T22:28:38.423Z,3.53
2023-05-21T22:31:07.562Z,3.42
2023-05-21T22:33:36.517Z,3.10
2023-05-21T22:36:05.415Z,3.20
2023-05-21T22:38:34.617Z,3.20
2023-05-21T22:41:03.699Z,4.00
2023-05-21T22:43:34.780Z,3.90
2023-05-21T22:46:04.068Z,4.95
2023-05-21T22:48:34.680Z,5.03
2023-05-21T22:51:03.561Z,4.40
2023-05-21T22:53:32.772Z,4.60
2023-05-21T22:56:02.175Z,4.70
2023-05-21T22:58:31.085Z,5.00
2023-05-21T23:01:00.471Z,5.78
2023-05-21T23:03:29.348Z,5.90
2023-05-21T23:05:58.554Z,6.53
2023-05-21T23:08:30.437Z,5.73
2023-05-21T23:10:59.610Z,6.45
2023-05-21T23:13:28.699Z,6.62
2023-05-21T23:15:57.627Z,6.22
2023-05-21T23:18:26.998Z,6.53
2023-05-21T23:20:58.989Z,7.53
2023-05-21T23:23:28.260Z,7.22
2023-05-21T23:25:57.251Z,7.70
2023-05-21T23:28:26.470Z,8.43
2023-05-21T23:30:55.862Z,8.38
2023-05-21T23:33:25.345Z,8.30
2023-05-21T23:35:54.448Z,7.67
2023-05-21T23:38:23.763Z,8.07
2023-05-21T23:40:52.745Z,8.73
2023-05-21T23:43:22.060Z,8.40
2023-05-21T23:45:51.429Z,8.70
2023-05-21T23:48:20.694Z,8.20
2023-05-21T23:50:49.949Z,9.28
2023-05-21T23:53:19.462Z,9.30
2023-05-21T23:55:48.766Z,9.75
2023-05-21T23:58:17.950Z,8.50
